Карточка аэропорта USRR

Внимание!
Информация на этой странице в стадии наполнения.
Если вы не увидели какой-то информации, или заметили неточность - пожалуйста сообщите нам!
Спасибо!
Команда RU-STAFF
Название аэропортаСургут
Название аэропорта (англ.)Surgut
Превышение196 ft. (59.7 m.)
Координаты61°20.502', 73°24.168'
Высота перехода700m
Эшелон переходаQFE>=742mm:FL040; QFE<=742mm:FL050
Коды ответчика5570-5577
Зона ОрВДТюмень РПИ (USTV)
Данные METARUSRR 131831Z 32004MPS 7000 -TSRA SCT010 BKN016CB 18/18 Q1009 R25/220250 TEMPO 2000 TSRA RMK QFE751
Проноз погоды (TAF)USRR 131640Z 1318/1418 36006G13MPS 6000 -SHRA SCT011 BKN020CB TEMPO 1318/1403 1000 TSRA BR BKN003 BKN015CB BECMG 1404/1406 9999 NSW SCT020CB TEMPO 1406/1412 5000 -SHRA FEW007 BKN016CB
NOTAMshow/hide NOTAM
AWOS   TABLE

Информация о ВПП

ВПП Длина ВПП (м.) Покрытие Курс ВПП Частота ILS
072780Асфальтобетон73110.5
252780Асфальтобетон253109.1

Диспетчерские позиции

Позывной Наименование органа УВД Частота
USRR_R_APPСургут - Круг120.300
USRR_TWRСургут-Вышка120.800
USRR_APPСургут-Подход129.300



Спутниковое изображение